Time;durP1;ratioP1;P1;durP2;ratioP2;P2;SDS_P1;SDS_P2;PMS_P1;PMS_P2;Temp;Humidity;BMP_temperature;BMP_pressure;BME280_temperature;BME280_humidity;BME280_pressure;Samples;Min_cycle;Max_cycle;Signal;HPM_P1;HPM_P2
2023/05/31 00:00:48;;;;;;;14.57;4.00;;;;;;;;;;5059037;28;20690;-61
2023/05/31 00:03:16;;;;;;;4.13;3.60;;;;;;;;;;5058497;28;20697;-61
2023/05/31 00:05:45;;;;;;;6.67;4.13;;;;;;;;;;5058889;28;20674;-61
2023/05/31 00:08:14;;;;;;;5.53;3.47;;;;;;;;;;5058798;28;20772;-61
2023/05/31 00:10:42;;;;;;;9.73;3.93;;;;;;;;;;5057886;28;20737;-61
2023/05/31 00:13:10;;;;;;;3.70;3.40;;;;;;;;;;5059288;28;20702;-62
2023/05/31 00:15:38;;;;;;;8.50;3.70;;;;;;;;;;5059837;28;20716;-62
2023/05/31 00:18:06;;;;;;;4.10;3.70;;;;;;;;;;5058695;28;20702;-62
2023/05/31 00:20:35;;;;;;;5.20;3.40;;;;;;;;;;5060100;28;20761;-61
2023/05/31 00:23:04;;;;;;;4.40;3.50;;;;;;;;;;5058810;28;20706;-63
2023/05/31 00:25:32;;;;;;;5.67;3.40;;;;;;;;;;5059030;28;20684;-61
2023/05/31 00:28:00;;;;;;;6.60;4.10;;;;;;;;;;5058932;28;20722;-61
2023/05/31 00:30:29;;;;;;;10.20;4.00;;;;;;;;;;5074783;28;20710;-62
2023/05/31 00:32:57;;;;;;;4.43;3.73;;;;;;;;;;5058379;28;20698;-61
2023/05/31 00:35:25;;;;;;;4.97;3.00;;;;;;;;;;5059897;28;20733;-61
2023/05/31 00:37:54;;;;;;;5.80;3.63;;;;;;;;;;5058622;28;20679;-61
2023/05/31 00:40:23;;;;;;;8.30;3.73;;;;;;;;;;5059757;28;20695;-61
2023/05/31 00:42:53;;;;;;;3.87;3.13;;;;;;;;;;5059388;28;21084;-61
2023/05/31 00:45:22;;;;;;;6.40;3.67;;;;;;;;;;5058861;28;20701;-60
2023/05/31 00:47:51;;;;;;;6.83;4.00;;;;;;;;;;5058949;28;21034;-62
2023/05/31 00:50:19;;;;;;;5.17;3.47;;;;;;;;;;5062186;28;20698;-61
2023/05/31 00:52:49;;;;;;;6.60;3.70;;;;;;;;;;5063050;28;20677;-61
2023/05/31 00:55:18;;;;;;;7.90;3.20;;;;;;;;;;5063952;28;20672;-61
2023/05/31 00:57:47;;;;;;;6.70;4.40;;;;;;;;;;5078088;28;20726;-62
2023/05/31 01:00:16;;;;;;;3.93;3.57;;;;;;;;;;5062877;28;20682;-61
2023/05/31 01:02:46;;;;;;;4.63;3.63;;;;;;;;;;5062465;28;20682;-62
2023/05/31 01:05:14;;;;;;;7.60;4.37;;;;;;;;;;5062931;28;20670;-62
2023/05/31 01:07:42;;;;;;;8.03;4.00;;;;;;;;;;5062718;28;20700;-62
2023/05/31 01:10:11;;;;;;;10.27;3.80;;;;;;;;;;5063258;28;20621;-61
2023/05/31 01:12:52;;;;;;;11.50;4.20;;;;;;;;;;5063231;28;20724;-61
2023/05/31 01:15:24;;;;;;;4.23;3.67;;;;;;;;;;5063278;28;20723;-61
2023/05/31 01:17:59;;;;;;;4.53;3.77;;;;;;;;;;5063545;28;20696;-61
2023/05/31 01:20:27;;;;;;;4.87;3.80;;;;;;;;;;5063271;28;21060;-61
2023/05/31 01:23:02;;;;;;;6.43;3.87;;;;;;;;;;5062804;28;20904;-62
2023/05/31 01:25:51;;;;;;;3.60;3.30;;;;;;;;;;5062743;28;21061;-61
2023/05/31 01:28:21;;;;;;;8.10;3.73;;;;;;;;;;5057917;28;20705;-62
2023/05/31 01:30:50;;;;;;;6.70;3.83;;;;;;;;;;5063426;28;20676;-62
2023/05/31 01:33:19;;;;;;;4.20;3.90;;;;;;;;;;5062475;28;20741;-62
2023/05/31 01:35:47;;;;;;;5.67;3.40;;;;;;;;;;5077868;28;20755;-62
2023/05/31 01:38:15;;;;;;;4.50;3.40;;;;;;;;;;5063137;28;21033;-61
2023/05/31 01:40:43;;;;;;;5.37;3.50;;;;;;;;;;5061954;28;20676;-61
2023/05/31 01:43:12;;;;;;;5.10;3.30;;;;;;;;;;5060652;28;20661;-61
2023/05/31 01:45:42;;;;;;;7.27;4.20;;;;;;;;;;5077595;28;21204;-61
2023/05/31 01:48:12;;;;;;;6.93;3.60;;;;;;;;;;5062136;28;20645;-60
2023/05/31 01:50:41;;;;;;;7.03;3.60;;;;;;;;;;5061983;28;20761;-61
2023/05/31 01:53:09;;;;;;;6.50;4.10;;;;;;;;;;5078238;28;20679;-62
2023/05/31 01:55:38;;;;;;;12.23;3.70;;;;;;;;;;5077249;28;20706;-62
2023/05/31 01:58:08;;;;;;;6.90;3.80;;;;;;;;;;5060605;28;20700;-62
2023/05/31 02:00:36;;;;;;;4.90;3.73;;;;;;;;;;5076611;28;20668;-64
2023/05/31 02:03:06;;;;;;;6.23;4.10;;;;;;;;;;5077272;28;20705;-61
2023/05/31 02:05:34;;;;;;;5.43;3.57;;;;;;;;;;5061766;28;20668;-61
2023/05/31 02:08:03;;;;;;;6.00;3.50;;;;;;;;;;5061509;28;21046;-61
2023/05/31 02:10:31;;;;;;;5.53;3.90;;;;;;;;;;5077286;28;21246;-62
2023/05/31 02:12:59;;;;;;;4.60;3.67;;;;;;;;;;5061436;28;20680;-61
2023/05/31 02:15:28;;;;;;;7.20;3.70;;;;;;;;;;5077177;28;20676;-61
2023/05/31 02:17:58;;;;;;;5.57;3.27;;;;;;;;;;5061146;28;20745;-61
2023/05/31 02:20:28;;;;;;;4.13;3.13;;;;;;;;;;5061316;28;20676;-61
2023/05/31 02:22:56;;;;;;;6.50;4.10;;;;;;;;;;5066122;28;21051;-61
2023/05/31 02:25:25;;;;;;;7.13;3.80;;;;;;;;;;5081105;28;20675;-62
2023/05/31 02:27:53;;;;;;;3.63;3.17;;;;;;;;;;5080083;28;21140;-62
2023/05/31 02:30:21;;;;;;;6.37;4.30;;;;;;;;;;5064723;28;20701;-62
2023/05/31 02:32:49;;;;;;;4.87;3.97;;;;;;;;;;5044032;28;20733;-62
2023/05/31 02:35:17;;;;;;;5.40;3.77;;;;;;;;;;5061523;28;20657;-61
2023/05/31 02:37:47;;;;;;;5.57;3.57;;;;;;;;;;5061259;28;20771;-62
2023/05/31 02:40:15;;;;;;;6.33;4.40;;;;;;;;;;5061344;28;20995;-61
2023/05/31 02:42:44;;;;;;;4.73;3.80;;;;;;;;;;5060799;28;20657;-61
2023/05/31 02:45:13;;;;;;;6.10;3.35;;;;;;;;;;5060107;28;20706;-62
2023/05/31 02:47:41;;;;;;;7.00;4.03;;;;;;;;;;5060359;28;20260;-61
2023/05/31 02:50:11;;;;;;;5.40;3.90;;;;;;;;;;5060523;28;20702;-61
2023/05/31 02:52:51;;;;;;;4.50;3.83;;;;;;;;;;5042274;28;20664;-61
2023/05/31 02:55:49;;;;;;;12.47;4.07;;;;;;;;;;5058735;28;20726;-61
2023/05/31 02:58:20;;;;;;;5.90;4.70;;;;;;;;;;5060328;28;20700;-61
2023/05/31 03:01:11;;;;;;;10.90;4.47;;;;;;;;;;5060254;28;20609;-61
2023/05/31 03:03:48;;;;;;;4.60;3.65;;;;;;;;;;5042408;28;20678;-61
2023/05/31 03:06:24;;;;;;;6.90;3.50;;;;;;;;;;5059656;28;20369;-61
2023/05/31 03:08:54;;;;;;;5.70;3.93;;;;;;;;;;5061332;28;20655;-61
2023/05/31 03:11:23;;;;;;;9.40;2.97;;;;;;;;;;5059106;28;20681;-61
2023/05/31 03:13:51;;;;;;;3.58;3.28;;;;;;;;;;5060180;28;20718;-62
2023/05/31 03:16:20;;;;;;;8.93;4.27;;;;;;;;;;5060964;28;20284;-61
2023/05/31 03:18:50;;;;;;;6.95;3.75;;;;;;;;;;5060478;28;20647;-62
2023/05/31 03:21:18;;;;;;;4.77;3.47;;;;;;;;;;5068738;28;20200;-61
2023/05/31 03:23:46;;;;;;;10.07;4.10;;;;;;;;;;5073461;28;21233;-61
2023/05/31 03:26:16;;;;;;;4.83;4.00;;;;;;;;;;5081533;28;20676;-61
2023/05/31 03:28:44;;;;;;;5.60;3.80;;;;;;;;;;5079601;28;20683;-62
2023/05/31 03:31:12;;;;;;;7.37;4.60;;;;;;;;;;5061851;28;21203;-61
2023/05/31 03:33:41;;;;;;;7.00;3.17;;;;;;;;;;5061034;28;20757;-61
2023/05/31 03:36:09;;;;;;;8.23;3.37;;;;;;;;;;5060778;28;20650;-61
2023/05/31 03:38:37;;;;;;;11.82;3.70;;;;;;;;;;5061966;28;21134;-61
2023/05/31 03:41:06;;;;;;;12.97;3.30;;;;;;;;;;5060327;28;20287;-65
2023/05/31 03:43:36;;;;;;;8.20;3.80;;;;;;;;;;5061469;28;20739;-61
2023/05/31 03:46:04;;;;;;;4.67;3.43;;;;;;;;;;5060412;28;20649;-61
2023/05/31 03:48:32;;;;;;;8.07;3.53;;;;;;;;;;5061977;28;20999;-61
2023/05/31 03:51:00;;;;;;;6.77;3.33;;;;;;;;;;5061098;28;20653;-60
2023/05/31 03:53:28;;;;;;;12.27;3.93;;;;;;;;;;5060223;28;20698;-61
2023/05/31 03:55:58;;;;;;;9.80;3.63;;;;;;;;;;5060059;28;20713;-60
2023/05/31 03:58:27;;;;;;;5.80;3.90;;;;;;;;;;5060664;28;20688;-61
2023/05/31 04:00:57;;;;;;;10.63;3.50;;;;;;;;;;5060981;28;20714;-61
2023/05/31 04:03:29;;;;;;;7.27;3.40;;;;;;;;;;5059455;28;20630;-61
2023/05/31 04:05:57;;;;;;;6.72;3.90;;;;;;;;;;5060631;28;20706;-61
2023/05/31 04:08:25;;;;;;;3.50;3.20;;;;;;;;;;5060596;28;20284;-61
2023/05/31 04:10:53;;;;;;;10.97;3.67;;;;;;;;;;5060533;28;20677;-61
2023/05/31 04:13:22;;;;;;;6.27;3.70;;;;;;;;;;5060591;28;20698;-61
2023/05/31 04:15:50;;;;;;;11.07;3.80;;;;;;;;;;5061351;28;20691;-61
2023/05/31 04:18:21;;;;;;;5.13;3.80;;;;;;;;;;5060316;28;20746;-61
2023/05/31 04:20:50;;;;;;;5.67;4.10;;;;;;;;;;5044635;28;21164;-62
2023/05/31 04:23:18;;;;;;;6.60;3.17;;;;;;;;;;5059770;28;20706;-61
2023/05/31 04:25:47;;;;;;;8.00;3.93;;;;;;;;;;5060301;28;20630;-62
2023/05/31 04:28:18;;;;;;;8.67;3.90;;;;;;;;;;5060265;28;20678;-61
2023/05/31 04:30:47;;;;;;;7.40;4.07;;;;;;;;;;5060581;28;20637;-62
2023/05/31 04:33:17;;;;;;;5.33;3.20;;;;;;;;;;5060801;28;20661;-61
2023/05/31 04:35:46;;;;;;;6.30;3.20;;;;;;;;;;5060897;28;20662;-60
2023/05/31 04:38:16;;;;;;;8.97;4.00;;;;;;;;;;5060730;28;20722;-61
2023/05/31 04:40:44;;;;;;;9.57;4.13;;;;;;;;;;5061448;28;20653;-61
2023/05/31 04:43:13;;;;;;;5.67;3.60;;;;;;;;;;5058754;28;20694;-61
2023/05/31 04:45:41;;;;;;;8.07;3.30;;;;;;;;;;5059815;28;20649;-61
2023/05/31 04:48:10;;;;;;;11.23;4.07;;;;;;;;;;5059382;28;20681;-61
2023/05/31 04:50:38;;;;;;;6.00;3.60;;;;;;;;;;5060173;28;20675;-61
2023/05/31 04:53:08;;;;;;;6.70;3.40;;;;;;;;;;5059276;28;20725;-62
2023/05/31 04:55:36;;;;;;;9.07;3.90;;;;;;;;;;5061503;28;20757;-62
2023/05/31 04:58:09;;;;;;;13.27;4.50;;;;;;;;;;5059596;28;20657;-62
2023/05/31 05:00:37;;;;;;;11.00;3.60;;;;;;;;;;5059169;28;20680;-61
2023/05/31 05:03:12;;;;;;;6.83;3.87;;;;;;;;;;5058346;28;20632;-63
2023/05/31 05:05:41;;;;;;;10.10;4.00;;;;;;;;;;5058548;28;20749;-61
2023/05/31 05:08:11;;;;;;;6.83;3.87;;;;;;;;;;5058660;28;20756;-61
2023/05/31 05:10:41;;;;;;;11.83;4.20;;;;;;;;;;5059897;28;20707;-61
2023/05/31 05:13:10;;;;;;;5.40;3.33;;;;;;;;;;5058771;28;20600;-62
2023/05/31 05:15:40;;;;;;;8.63;4.10;;;;;;;;;;5059023;28;20637;-61
2023/05/31 05:18:08;;;;;;;12.13;4.97;;;;;;;;;;5058317;28;20713;-63
2023/05/31 05:20:38;;;;;;;5.70;3.60;;;;;;;;;;5058921;28;20665;-61
2023/05/31 05:23:07;;;;;;;4.63;3.90;;;;;;;;;;5058646;28;20681;-63
2023/05/31 05:25:38;;;;;;;9.20;3.57;;;;;;;;;;5059830;28;20675;-62
2023/05/31 05:28:06;;;;;;;7.80;4.07;;;;;;;;;;5058686;28;20678;-64
2023/05/31 05:30:34;;;;;;;8.00;3.97;;;;;;;;;;5058812;28;20682;-61
2023/05/31 05:33:02;;;;;;;8.40;4.27;;;;;;;;;;5059794;28;20694;-61
2023/05/31 05:35:32;;;;;;;7.87;3.70;;;;;;;;;;5061951;28;20682;-61
2023/05/31 05:38:00;;;;;;;12.93;3.90;;;;;;;;;;5061515;28;20689;-61
2023/05/31 05:40:28;;;;;;;6.40;4.10;;;;;;;;;;5062075;28;20669;-61
2023/05/31 05:42:58;;;;;;;5.67;3.93;;;;;;;;;;5061896;28;20694;-62
2023/05/31 05:45:27;;;;;;;8.97;5.00;;;;;;;;;;5060997;28;20680;-62
2023/05/31 05:47:55;;;;;;;8.40;4.37;;;;;;;;;;5061990;28;20721;-62
2023/05/31 05:50:24;;;;;;;5.57;4.30;;;;;;;;;;5061740;28;20668;-62
2023/05/31 05:52:52;;;;;;;7.83;4.80;;;;;;;;;;5063481;28;20722;-61
2023/05/31 05:55:21;;;;;;;8.67;3.77;;;;;;;;;;5061039;28;20698;-62
2023/05/31 05:57:52;;;;;;;8.60;3.70;;;;;;;;;;5062129;28;20653;-61
2023/05/31 06:00:42;;;;;;;5.90;4.70;;;;;;;;;;5062024;28;20666;-61
2023/05/31 06:03:11;;;;;;;8.07;4.27;;;;;;;;;;5074360;28;20699;-61
2023/05/31 06:05:39;;;;;;;6.83;4.87;;;;;;;;;;5077201;28;20778;-61
2023/05/31 06:08:08;;;;;;;6.30;4.43;;;;;;;;;;5080557;28;20732;-61
2023/05/31 06:10:36;;;;;;;9.00;4.07;;;;;;;;;;5081875;28;20725;-62
2023/05/31 06:13:06;;;;;;;6.53;5.27;;;;;;;;;;5081529;28;20733;-67
2023/05/31 06:15:35;;;;;;;8.27;3.93;;;;;;;;;;5081517;28;20671;-62
2023/05/31 06:18:05;;;;;;;7.47;4.03;;;;;;;;;;5081590;28;20683;-63
2023/05/31 06:20:33;;;;;;;5.83;3.63;;;;;;;;;;5083235;28;20681;-62
2023/05/31 06:23:02;;;;;;;6.07;4.80;;;;;;;;;;5080819;28;21227;-61
2023/05/31 06:25:30;;;;;;;4.60;4.20;;;;;;;;;;5079705;28;20804;-62
2023/05/31 06:27:59;;;;;;;4.63;3.97;;;;;;;;;;5080778;28;20684;-62
2023/05/31 06:30:27;;;;;;;4.93;3.90;;;;;;;;;;5079511;28;20717;-63
2023/05/31 06:32:56;;;;;;;4.77;4.13;;;;;;;;;;5081304;28;20741;-62
2023/05/31 06:35:29;;;;;;;11.93;4.13;;;;;;;;;;5063252;28;20675;-61
2023/05/31 06:37:57;;;;;;;11.93;4.67;;;;;;;;;;5080553;28;20669;-61
2023/05/31 06:40:26;;;;;;;4.20;3.80;;;;;;;;;;5081475;28;20721;-63
2023/05/31 06:42:54;;;;;;;14.33;5.20;;;;;;;;;;5082029;28;20693;-62
2023/05/31 06:45:34;;;;;;;5.20;4.00;;;;;;;;;;5082054;28;20669;-61
2023/05/31 06:48:28;;;;;;;4.50;4.10;;;;;;;;;;5081153;28;20701;-63
2023/05/31 06:51:36;;;;;;;7.63;4.03;;;;;;;;;;5059207;28;20713;-62
2023/05/31 06:54:23;;;;;;;5.90;4.27;;;;;;;;;;5058972;28;20676;-62
2023/05/31 06:56:54;;;;;;;8.57;4.80;;;;;;;;;;5065093;28;20712;-61
2023/05/31 06:59:22;;;;;;;5.70;4.90;;;;;;;;;;5080731;28;20744;-63
2023/05/31 07:01:52;;;;;;;10.37;4.40;;;;;;;;;;5078412;28;20668;-62
2023/05/31 07:04:20;;;;;;;8.20;4.97;;;;;;;;;;5079899;28;20697;-62
2023/05/31 07:06:50;;;;;;;7.70;4.50;;;;;;;;;;5080407;28;20721;-62
2023/05/31 07:09:19;;;;;;;5.57;4.40;;;;;;;;;;5062916;28;21310;-62
2023/05/31 07:11:55;;;;;;;6.33;3.70;;;;;;;;;;5079429;28;20685;-61
2023/05/31 07:14:24;;;;;;;6.03;4.27;;;;;;;;;;5079781;28;20689;-62
2023/05/31 07:16:53;;;;;;;4.23;3.93;;;;;;;;;;5079804;28;20706;-61
2023/05/31 07:19:22;;;;;;;7.50;4.33;;;;;;;;;;5080024;28;20661;-62
2023/05/31 07:21:52;;;;;;;18.97;4.77;;;;;;;;;;5078916;28;20702;-62
2023/05/31 07:24:20;;;;;;;9.73;4.73;;;;;;;;;;5079907;28;21058;-62
2023/05/31 07:26:48;;;;;;;11.70;4.80;;;;;;;;;;5080586;28;20954;-62
2023/05/31 07:29:16;;;;;;;8.77;4.40;;;;;;;;;;5080518;28;20698;-62
2023/05/31 07:31:44;;;;;;;5.90;4.40;;;;;;;;;;5080697;28;20685;-63
2023/05/31 07:34:13;;;;;;;7.50;5.00;;;;;;;;;;5079600;28;20697;-62
2023/05/31 07:36:41;;;;;;;9.20;4.43;;;;;;;;;;5079683;28;21035;-62
2023/05/31 07:39:11;;;;;;;6.30;3.90;;;;;;;;;;5080285;28;20733;-62
2023/05/31 07:41:39;;;;;;;12.40;4.60;;;;;;;;;;5080406;28;20701;-63
2023/05/31 07:44:07;;;;;;;11.93;4.50;;;;;;;;;;5080469;28;20678;-62
2023/05/31 07:46:36;;;;;;;10.87;4.90;;;;;;;;;;5078907;28;21024;-64
2023/05/31 07:49:04;;;;;;;11.80;4.33;;;;;;;;;;5080677;28;20693;-61
2023/05/31 07:51:33;;;;;;;6.93;4.13;;;;;;;;;;5079662;28;20700;-60
2023/05/31 07:54:02;;;;;;;7.30;4.20;;;;;;;;;;5080323;28;20686;-60
2023/05/31 07:56:31;;;;;;;3.97;3.70;;;;;;;;;;5078176;28;20701;-60
2023/05/31 07:58:59;;;;;;;4.40;4.10;;;;;;;;;;5079062;28;20825;-60
2023/05/31 08:01:28;;;;;;;5.10;4.43;;;;;;;;;;5078631;28;20892;-60
2023/05/31 08:03:56;;;;;;;14.10;5.13;;;;;;;;;;5078269;28;21235;-59
2023/05/31 08:06:25;;;;;;;7.90;4.40;;;;;;;;;;5078167;28;20760;-61
2023/05/31 08:08:54;;;;;;;6.77;4.47;;;;;;;;;;5078217;28;20685;-59
2023/05/31 08:11:22;;;;;;;5.27;4.77;;;;;;;;;;5079018;28;20722;-60
2023/05/31 08:13:51;;;;;;;4.90;4.50;;;;;;;;;;5077968;28;20697;-59
2023/05/31 08:16:19;;;;;;;4.40;4.00;;;;;;;;;;5078499;28;20987;-61
2023/05/31 08:18:48;;;;;;;10.83;4.80;;;;;;;;;;5078549;28;20697;-59
2023/05/31 08:21:16;;;;;;;5.30;4.70;;;;;;;;;;5078564;28;20767;-60
2023/05/31 08:23:45;;;;;;;8.93;5.03;;;;;;;;;;5079021;28;20689;-60
2023/05/31 08:26:13;;;;;;;5.30;4.30;;;;;;;;;;5078521;28;20682;-60
2023/05/31 08:28:41;;;;;;;6.93;4.33;;;;;;;;;;5078121;28;20689;-60
2023/05/31 08:31:11;;;;;;;5.13;4.40;;;;;;;;;;5077750;28;20701;-62
2023/05/31 08:33:40;;;;;;;7.33;4.93;;;;;;;;;;5077800;28;20681;-60
2023/05/31 08:36:08;;;;;;;8.30;4.37;;;;;;;;;;5078097;28;21096;-60
2023/05/31 08:38:36;;;;;;;5.20;4.70;;;;;;;;;;5078001;28;20692;-62
2023/05/31 08:41:05;;;;;;;5.37;4.87;;;;;;;;;;5078276;28;20725;-60
2023/05/31 08:43:34;;;;;;;7.13;4.50;;;;;;;;;;5078597;28;21038;-60
2023/05/31 08:46:02;;;;;;;4.67;4.37;;;;;;;;;;5077971;28;20728;-60
2023/05/31 08:48:37;;;;;;;5.03;4.53;;;;;;;;;;5077589;28;20685;-60
2023/05/31 08:51:06;;;;;;;5.10;4.70;;;;;;;;;;5079404;28;20645;-60
2023/05/31 08:53:35;;;;;;;5.40;4.90;;;;;;;;;;5078213;28;20677;-60
2023/05/31 08:56:05;;;;;;;4.40;4.10;;;;;;;;;;5071188;28;20729;-60
2023/05/31 08:58:35;;;;;;;5.13;4.63;;;;;;;;;;5076684;28;20709;-60
2023/05/31 09:01:04;;;;;;;8.03;4.80;;;;;;;;;;5077239;28;20695;-61
2023/05/31 09:03:37;;;;;;;4.37;4.07;;;;;;;;;;5068688;28;20688;-61
2023/05/31 09:06:05;;;;;;;5.97;4.23;;;;;;;;;;5058790;28;20703;-60
2023/05/31 09:08:33;;;;;;;6.10;4.73;;;;;;;;;;5058184;28;20667;-60
2023/05/31 09:11:02;;;;;;;4.43;4.03;;;;;;;;;;5062060;28;20742;-59
2023/05/31 09:13:31;;;;;;;8.90;4.80;;;;;;;;;;5061442;28;20691;-60
2023/05/31 09:15:59;;;;;;;7.00;4.30;;;;;;;;;;5063084;28;20734;-59
2023/05/31 09:18:31;;;;;;;6.80;4.17;;;;;;;;;;5062247;28;20701;-60
2023/05/31 09:21:09;;;;;;;5.33;4.40;;;;;;;;;;5061525;28;20718;-61
2023/05/31 09:23:37;;;;;;;5.00;4.20;;;;;;;;;;5062399;28;20697;-62
2023/05/31 09:26:07;;;;;;;4.47;4.10;;;;;;;;;;5060967;28;21261;-65
2023/05/31 09:28:36;;;;;;;7.13;4.80;;;;;;;;;;5059705;28;20670;-62
2023/05/31 09:31:05;;;;;;;9.67;4.63;;;;;;;;;;5058503;28;20752;-62
2023/05/31 09:33:40;;;;;;;4.50;4.13;;;;;;;;;;5062185;28;20698;-61
2023/05/31 09:36:10;;;;;;;4.57;4.17;;;;;;;;;;5062318;28;20678;-61
2023/05/31 09:38:38;;;;;;;5.93;4.03;;;;;;;;;;5061578;28;20686;-62
2023/05/31 09:41:14;;;;;;;4.93;4.43;;;;;;;;;;5061938;28;20734;-62
2023/05/31 09:43:42;;;;;;;8.73;4.30;;;;;;;;;;5061491;28;20673;-61
2023/05/31 09:46:15;;;;;;;4.50;4.20;;;;;;;;;;5060121;28;20683;-61
2023/05/31 09:48:43;;;;;;;12.50;5.10;;;;;;;;;;5061651;28;20670;-61
2023/05/31 09:51:14;;;;;;;5.03;4.70;;;;;;;;;;5059503;28;20683;-61
2023/05/31 09:53:43;;;;;;;7.40;4.70;;;;;;;;;;5059878;28;20646;-61
2023/05/31 09:56:13;;;;;;;5.20;4.70;;;;;;;;;;5042375;28;20693;-62
2023/05/31 09:58:41;;;;;;;11.33;8.87;;;;;;;;;;5059880;28;20679;-61
2023/05/31 10:01:10;;;;;;;5.27;4.87;;;;;;;;;;5060921;28;21310;-61
2023/05/31 10:03:40;;;;;;;5.23;4.83;;;;;;;;;;5060250;28;21041;-62
2023/05/31 10:06:09;;;;;;;8.90;4.90;;;;;;;;;;5060391;28;20647;-61
2023/05/31 10:08:38;;;;;;;10.80;4.40;;;;;;;;;;5061719;28;20671;-62
2023/05/31 10:11:08;;;;;;;5.40;5.00;;;;;;;;;;5060260;28;20715;-62
2023/05/31 10:13:36;;;;;;;4.77;4.40;;;;;;;;;;5061075;28;20678;-62
2023/05/31 10:16:06;;;;;;;5.10;4.80;;;;;;;;;;5058984;28;20693;-61
2023/05/31 10:18:35;;;;;;;4.53;4.23;;;;;;;;;;5060817;28;20698;-61
2023/05/31 10:21:08;;;;;;;25.30;5.00;;;;;;;;;;5059009;28;20657;-61
2023/05/31 10:23:38;;;;;;;7.20;4.70;;;;;;;;;;5061263;28;20682;-64
2023/05/31 10:26:13;;;;;;;4.90;4.40;;;;;;;;;;5059865;28;20682;-62
2023/05/31 10:28:46;;;;;;;6.93;5.37;;;;;;;;;;5060100;28;20737;-61
2023/05/31 10:31:16;;;;;;;8.67;5.10;;;;;;;;;;5059912;28;20673;-62
2023/05/31 10:33:46;;;;;;;7.53;4.60;;;;;;;;;;5042021;28;20690;-62
2023/05/31 10:36:14;;;;;;;6.73;4.60;;;;;;;;;;5059385;28;21000;-62
2023/05/31 10:38:47;;;;;;;5.73;4.80;;;;;;;;;;5059702;28;20675;-61
2023/05/31 10:41:18;;;;;;;5.27;4.07;;;;;;;;;;5058406;28;20639;-62
2023/05/31 10:43:49;;;;;;;5.43;4.67;;;;;;;;;;5041588;28;20689;-62
2023/05/31 10:46:20;;;;;;;5.10;4.80;;;;;;;;;;5058613;28;20729;-62
2023/05/31 10:48:52;;;;;;;5.47;4.97;;;;;;;;;;5067887;28;20728;-61
2023/05/31 10:51:20;;;;;;;6.63;4.67;;;;;;;;;;5077504;28;20684;-61
2023/05/31 10:53:49;;;;;;;8.30;4.97;;;;;;;;;;5062223;28;20706;-62
2023/05/31 10:56:21;;;;;;;6.77;5.40;;;;;;;;;;5060707;28;21055;-62
2023/05/31 10:58:50;;;;;;;4.73;4.30;;;;;;;;;;5079281;28;21025;-62
2023/05/31 11:01:21;;;;;;;4.00;3.70;;;;;;;;;;5077172;28;20664;-63
2023/05/31 11:03:50;;;;;;;4.40;4.10;;;;;;;;;;5076765;28;20686;-62
2023/05/31 11:06:19;;;;;;;4.97;4.40;;;;;;;;;;5078211;28;21282;-62
2023/05/31 11:09:00;;;;;;;5.37;4.87;;;;;;;;;;5078667;28;20665;-62
2023/05/31 11:14:29;;;;;;;4.57;4.10;;;;;;;;;;5156603;27;20318;-63
2023/05/31 11:17:16;;;;;;;4.97;4.53;;;;;;;;;;5135607;28;20754;-62
2023/05/31 11:19:44;;;;;;;5.90;4.70;;;;;;;;;;5135843;28;20699;-62
2023/05/31 11:22:14;;;;;;;5.03;4.50;;;;;;;;;;5135952;28;20725;-63
2023/05/31 11:24:50;;;;;;;9.57;4.87;;;;;;;;;;5135692;28;20656;-63
2023/05/31 11:27:19;;;;;;;4.97;4.57;;;;;;;;;;5134952;28;20666;-63
2023/05/31 11:30:00;;;;;;;8.37;4.87;;;;;;;;;;5135930;28;20679;-63
2023/05/31 11:32:47;;;;;;;5.40;4.90;;;;;;;;;;5134980;28;20627;-62
2023/05/31 11:35:16;;;;;;;10.23;4.63;;;;;;;;;;5134772;28;20705;-62
2023/05/31 11:37:45;;;;;;;5.17;4.87;;;;;;;;;;5134844;28;20678;-63
2023/05/31 11:40:14;;;;;;;5.53;4.90;;;;;;;;;;5134984;28;20756;-62
2023/05/31 11:42:42;;;;;;;6.30;4.87;;;;;;;;;;5135251;28;20698;-62
2023/05/31 11:45:14;;;;;;;5.77;5.27;;;;;;;;;;5134836;28;21058;-62
2023/05/31 11:47:49;;;;;;;5.20;4.80;;;;;;;;;;5134877;28;20675;-62
2023/05/31 11:50:17;;;;;;;5.10;4.60;;;;;;;;;;5117333;28;20654;-62
2023/05/31 11:52:46;;;;;;;5.57;5.10;;;;;;;;;;5133806;28;20658;-64
2023/05/31 11:55:17;;;;;;;5.23;4.80;;;;;;;;;;5116959;28;20695;-62
2023/05/31 11:57:46;;;;;;;5.37;4.67;;;;;;;;;;5133694;28;20580;-65
2023/05/31 12:00:20;;;;;;;6.67;5.17;;;;;;;;;;5134824;28;20694;-63
2023/05/31 12:02:53;;;;;;;9.03;4.63;;;;;;;;;;5133665;28;20678;-62
2023/05/31 12:05:22;;;;;;;5.00;4.70;;;;;;;;;;5131531;28;20619;-62
2023/05/31 12:07:53;;;;;;;5.13;4.70;;;;;;;;;;5108240;28;20617;-62
2023/05/31 12:10:22;;;;;;;6.63;4.70;;;;;;;;;;5106333;28;20747;-62
2023/05/31 12:12:50;;;;;;;6.70;4.53;;;;;;;;;;5093307;28;20755;-61
2023/05/31 12:15:20;;;;;;;4.93;4.50;;;;;;;;;;5094260;28;20731;-62
2023/05/31 12:17:48;;;;;;;10.10;5.60;;;;;;;;;;5092686;28;20712;-61
2023/05/31 12:20:17;;;;;;;4.70;4.30;;;;;;;;;;5093768;28;20673;-61
2023/05/31 12:22:45;;;;;;;7.10;4.83;;;;;;;;;;5092624;28;21226;-62
2023/05/31 12:25:14;;;;;;;4.63;4.43;;;;;;;;;;5082757;28;20704;-61
2023/05/31 12:27:42;;;;;;;7.60;4.83;;;;;;;;;;5077545;28;20637;-62
2023/05/31 12:30:17;;;;;;;5.03;4.60;;;;;;;;;;5079869;28;20701;-62
2023/05/31 12:32:47;;;;;;;5.23;4.83;;;;;;;;;;5079542;28;20713;-62
2023/05/31 12:35:15;;;;;;;5.63;4.93;;;;;;;;;;5080366;28;20760;-62
2023/05/31 12:37:43;;;;;;;6.40;4.30;;;;;;;;;;5046039;28;20802;-62
2023/05/31 12:40:12;;;;;;;4.63;4.33;;;;;;;;;;5080144;28;21300;-62
2023/05/31 12:42:41;;;;;;;4.83;4.63;;;;;;;;;;5061256;28;20698;-62
2023/05/31 12:45:10;;;;;;;4.77;4.30;;;;;;;;;;5080150;28;20779;-62
2023/05/31 12:47:38;;;;;;;10.90;5.00;;;;;;;;;;5079658;28;20704;-63
2023/05/31 12:50:09;;;;;;;5.83;5.20;;;;;;;;;;5079913;28;20701;-62
2023/05/31 12:52:39;;;;;;;5.83;5.43;;;;;;;;;;5079251;28;20682;-62
2023/05/31 12:55:10;;;;;;;5.30;5.00;;;;;;;;;;5079738;28;20689;-62
2023/05/31 12:57:38;;;;;;;7.23;5.80;;;;;;;;;;5080058;28;20685;-62
2023/05/31 13:00:10;;;;;;;5.37;4.87;;;;;;;;;;5061637;28;20629;-62
2023/05/31 13:02:38;;;;;;;5.20;4.70;;;;;;;;;;5079087;28;20685;-62
2023/05/31 13:05:08;;;;;;;5.13;4.80;;;;;;;;;;5079685;28;20701;-62
2023/05/31 13:07:38;;;;;;;5.47;4.90;;;;;;;;;;5078879;28;20707;-62
2023/05/31 13:10:07;;;;;;;5.30;4.80;;;;;;;;;;5080027;28;20733;-64
2023/05/31 13:12:35;;;;;;;6.67;6.27;;;;;;;;;;5058563;28;20733;-61
2023/05/31 13:15:04;;;;;;;8.73;5.33;;;;;;;;;;5058629;28;20727;-62
2023/05/31 13:17:33;;;;;;;9.70;6.77;;;;;;;;;;5059164;28;20726;-61
2023/05/31 13:20:01;;;;;;;4.90;4.57;;;;;;;;;;5058491;28;20717;-63
2023/05/31 13:22:31;;;;;;;4.70;4.50;;;;;;;;;;5058192;28;20702;-62
2023/05/31 13:24:59;;;;;;;5.03;4.73;;;;;;;;;;5057199;28;20690;-62
2023/05/31 13:27:27;;;;;;;6.00;5.50;;;;;;;;;;5057502;28;20699;-62
2023/05/31 13:29:56;;;;;;;4.73;4.53;;;;;;;;;;5058105;28;20996;-62
2023/05/31 13:32:24;;;;;;;6.37;4.87;;;;;;;;;;5058720;28;20702;-61
2023/05/31 13:34:52;;;;;;;4.40;4.20;;;;;;;;;;5058231;28;20661;-62
2023/05/31 13:37:21;;;;;;;6.00;5.03;;;;;;;;;;5057684;28;20768;-62
2023/05/31 13:39:51;;;;;;;8.80;4.63;;;;;;;;;;5058788;28;20697;-62
2023/05/31 13:42:19;;;;;;;7.67;4.83;;;;;;;;;;5058354;28;21026;-61
2023/05/31 13:44:47;;;;;;;8.53;4.30;;;;;;;;;;5058389;28;20682;-62
2023/05/31 13:47:16;;;;;;;5.10;4.70;;;;;;;;;;5058895;28;20686;-61
2023/05/31 13:49:44;;;;;;;5.20;4.80;;;;;;;;;;5058517;28;20849;-62
2023/05/31 13:52:13;;;;;;;4.73;4.40;;;;;;;;;;5058420;28;20686;-62
2023/05/31 13:54:42;;;;;;;4.70;4.40;;;;;;;;;;5058747;28;20662;-62
2023/05/31 13:57:11;;;;;;;4.77;4.30;;;;;;;;;;5058286;28;20686;-62
2023/05/31 13:59:40;;;;;;;4.87;4.37;;;;;;;;;;5058023;28;21045;-62
2023/05/31 14:02:08;;;;;;;6.07;4.70;;;;;;;;;;5058068;28;20674;-63
2023/05/31 14:04:36;;;;;;;7.33;5.00;;;;;;;;;;5057719;28;20706;-63
2023/05/31 14:07:04;;;;;;;5.43;5.03;;;;;;;;;;5057458;28;20706;-62
2023/05/31 14:09:33;;;;;;;6.27;5.43;;;;;;;;;;5056965;28;20649;-62
2023/05/31 14:12:01;;;;;;;6.23;4.77;;;;;;;;;;5058152;28;21232;-62
2023/05/31 14:14:31;;;;;;;5.20;4.77;;;;;;;;;;5077146;28;20706;-62
2023/05/31 14:16:59;;;;;;;5.23;4.93;;;;;;;;;;5076467;28;20713;-62
2023/05/31 14:19:27;;;;;;;4.90;4.40;;;;;;;;;;5058909;28;20713;-61
2023/05/31 14:21:55;;;;;;;5.87;5.43;;;;;;;;;;5076334;28;20741;-62
2023/05/31 14:24:24;;;;;;;4.93;4.63;;;;;;;;;;5076486;28;20701;-62
2023/05/31 14:26:54;;;;;;;4.97;4.60;;;;;;;;;;5075642;28;20616;-62
2023/05/31 14:29:22;;;;;;;11.23;4.70;;;;;;;;;;5080113;28;20724;-62
2023/05/31 14:31:52;;;;;;;5.03;4.63;;;;;;;;;;5076660;28;20609;-62
2023/05/31 14:34:20;;;;;;;5.17;4.87;;;;;;;;;;5077222;28;20664;-62
2023/05/31 14:36:48;;;;;;;11.13;5.50;;;;;;;;;;5076749;28;20704;-62
2023/05/31 14:39:17;;;;;;;5.43;4.93;;;;;;;;;;5058723;28;20701;-61
2023/05/31 14:41:45;;;;;;;4.67;4.47;;;;;;;;;;5076633;28;21061;-61
2023/05/31 14:44:13;;;;;;;4.43;4.13;;;;;;;;;;5077071;28;20949;-61
2023/05/31 14:46:41;;;;;;;4.57;4.27;;;;;;;;;;5085187;28;20739;-62
2023/05/31 14:49:11;;;;;;;6.60;4.40;;;;;;;;;;5097335;28;20781;-62
2023/05/31 14:51:39;;;;;;;6.00;5.40;;;;;;;;;;5096539;28;20680;-63
2023/05/31 14:54:07;;;;;;;5.17;4.80;;;;;;;;;;5088213;28;21008;-62
2023/05/31 14:56:36;;;;;;;8.80;4.90;;;;;;;;;;5076306;28;20678;-66
2023/05/31 14:59:04;;;;;;;8.73;4.70;;;;;;;;;;5075855;28;20712;-62